Pittsburg, New Hampshire
Current Conditions -  °F | °C
As of 10:57 AM on Thursday 30 Oct 2014 (Local Time) from CYSC Reporting Station
Overcast Overcast  
Wind Chill: 36°   Ceiling: 1700
Heat Index: 41°   Visibility: 9mi
Dew Point: 36°   Wind: 8mph
Humidity: 81%   Direction: 290°WNW
Pressure: 29.92"   Gusts: NA
Location:  45.05°N, 71.39°W
Report Text: CYSC 301457Z AUTO 29007KT 270V330 9SM BKN017 OVC030 05/02 A2992 RMK SLP140
Loading
Personal Weather Stations






























Interactive Weather Map
Tropical Storm Tracking
New forecast layout! Learn more

10-Day Weather Forecast

Advertisements
Track Severe Weather on mobile